Gas Alice — 5BVA4 — position and weather

sailwx.info

Track history (hours):
 
Tides and Currents Weather Stations Pressure Air Temp Water Temp Dewpoint Dewpoint Depression Visibility Wind Speed Wind Dir Waves Ship Positions

Gas Alice

Last reported at 2017-Oct-17 19:13 UTC. Time now 2017-Oct-18 06:11 UTC.
Position N 39°05' W 009°56'.

Length 96 m; draft 5.5 m.

Type: Tanker. MMSI: 209137000.

Date/timePositionNaut miles runAvg speedWind from/ knotsBaromVisibWave heightAir tempDewpointWater temp
2017-Oct-17 19:13N 39°05' W 009°56'211.5
2017-Oct-17 19:00N 39°03' W 009°56'611.8
2017-Oct-17 18:30N 38°57' W 009°56'2211.9
2017-Oct-17 16:40N 38°35' W 009°53'212.1
2017-Oct-17 16:30N 38°33' W 009°52'4211.2
2017-Oct-17 12:43N 38°02' W 009°16'312.2
2017-Oct-17 12:30N 38°01' W 009°13'611.9
2017-Oct-17 12:00N 37°58' W 009°06'611.9
2017-Oct-17 11:30N 37°55' W 008°59'5 9.9
2017-Oct-17 11:00N 37°55' W 008°53'2 3.4
2017-Oct-17 10:30N 37°57' W 008°53'0 0.0
2017-Oct-17 10:00N 37°57' W 008°53'0 0.0
2017-Oct-17 09:30N 37°57' W 008°53'0 0.0
2017-Oct-17 09:00N 37°57' W 008°53'0 0.0
2017-Oct-17 08:30N 37°57' W 008°53'0 0.0
2017-Oct-17 08:00N 37°57' W 008°53'0 0.0
2017-Oct-16 00:51N 37°57' W 008°53'1 1.9
2017-Oct-16 00:30N 37°56' W 008°53'2 4.8
2017-Oct-16 00:00N 37°55' W 008°56'5 9.8
2017-Oct-15 23:30N 37°56' W 009°02'612.2
2017-Oct-15 23:00N 37°59' W 009°08'612.1
2017-Oct-15 22:30N 38°02' W 009°15'612.3
2017-Oct-15 22:00N 38°05' W 009°22'612.2
2017-Oct-15 21:30N 38°08' W 009°29'712.3
2017-Oct-15 20:56N 38°11' W 009°37'512.0
2017-Oct-15 20:29N 38°14' W 009°42'711.7
2017-Oct-15 19:55N 38°19' W 009°49'512.0
2017-Oct-15 19:30N 38°22' W 009°53'612.3
2017-Oct-15 19:00N 38°26' W 009°59'611.8
2017-Oct-15 18:30N 38°29' W 010°05'611.2
2017-Oct-15 18:00N 38°34' W 010°09'611.8
2017-Oct-15 17:30N 38°40' W 010°11'611.3
2017-Oct-15 16:58N 38°46' W 010°11'510.6
2017-Oct-15 16:30N 38°51' W 010°11'510.9
2017-Oct-15 16:00N 38°56' W 010°12'611.7
2017-Oct-15 15:30N 39°02' W 010°12'611.7
2017-Oct-15 15:00N 39°08' W 010°12'1111.3
2017-Oct-15 14:00N 39°19' W 010°12'12910.3
2017-Oct-15 01:24N 41°09' W 008°43'2 4.9
2017-Oct-15 01:00N 41°11' W 008°43'0 0.0
2017-Oct-15 00:31N 41°11' W 008°43'0 0.0
2017-Oct-13 07:54N 41°11' W 008°43'1 3.5
2017-Oct-13 07:30N 41°10' W 008°42'139 9.3
2017-Oct-12 16:32N 39°02' W 009°56'112.6
2017-Oct-12 16:29N 39°02' W 009°56'6911.3
2017-Oct-12 10:26N 38°01' W 009°14'512.4
2017-Oct-12 10:00N 37°59' W 009°08'612.8
2017-Oct-12 09:30N 37°56' W 009°01'611.5
2017-Oct-12 09:00N 37°55' W 008°54'3 5.1
2017-Oct-12 08:30N 37°57' W 008°53'0 0.0
2017-Oct-12 08:00N 37°57' W 008°53'0 0.0
2017-Oct-12 07:30N 37°57' W 008°53'0 0.0
2017-Oct-12 07:00N 37°57' W 008°53'0 0.0
2017-Oct-12 06:30N 37°57' W 008°53'0 0.0
2017-Oct-12 05:59N 37°57' W 008°53'3 0.1
2017-Oct-10 23:58N 37°55' W 008°52'0 0.0
2017-Oct-10 23:28N 37°55' W 008°52'0 0.0
2017-Oct-10 22:55N 37°55' W 008°52'0 0.0
2017-Oct-10 22:28N 37°55' W 008°52'0 0.0
2017-Oct-10 21:58N 37°55' W 008°52'0 0.0
2017-Oct-10 21:28N 37°55' W 008°52'0 0.0
2017-Oct-10 20:55N 37°55' W 008°52'0 0.0
2017-Oct-10 20:25N 37°55' W 008°52'0 0.0
2017-Oct-10 19:55N 37°55' W 008°52'0 0.0
2017-Oct-10 19:25N 37°55' W 008°52'0 0.0
2017-Oct-10 19:01N 37°55' W 008°52'0 0.1
2017-Oct-10 18:31N 37°54' W 008°52'0 0.1
2017-Oct-10 17:58N 37°54' W 008°52'0 0.0
2017-Oct-10 17:30N 37°54' W 008°52'0 0.0
2017-Oct-10 17:00N 37°54' W 008°52'0 0.0
2017-Oct-10 16:24N 37°55' W 008°52'0 0.0
2017-Oct-10 15:57N 37°54' W 008°52'0 0.1
2017-Oct-10 15:30N 37°55' W 008°52'0 0.0
2017-Oct-10 15:00N 37°55' W 008°52'0 0.0
2017-Oct-10 14:00N 37°54' W 008°52'0 0.0
2017-Oct-10 13:30N 37°54' W 008°52'0 0.0
2017-Oct-10 13:00N 37°54' W 008°52'0 0.0
2017-Oct-10 12:30N 37°54' W 008°52'0 0.0
2017-Oct-10 12:00N 37°54' W 008°52'0 0.0
2017-Oct-10 11:30N 37°54' W 008°52'0 0.0
2017-Oct-10 11:00N 37°54' W 008°52'0 0.0
2017-Oct-10 10:30N 37°54' W 008°52'0 0.0
2017-Oct-10 10:00N 37°54' W 008°52'0 0.1
2017-Oct-10 09:27N 37°55' W 008°52'0 0.1
2017-Oct-10 08:57N 37°55' W 008°52'0 0.0
2017-Oct-10 08:30N 37°55' W 008°52'0 0.0
2017-Oct-10 08:00N 37°55' W 008°52'0 0.0
2017-Oct-10 07:30N 37°55' W 008°52'0 0.0
2017-Oct-10 07:00N 37°55' W 008°52'0 0.0
2017-Oct-10 06:27N 37°55' W 008°52'0 0.0
2017-Oct-10 05:57N 37°55' W 008°52'0 0.0
2017-Oct-10 05:30N 37°55' W 008°52'0 0.0
2017-Oct-10 05:00N 37°55' W 008°52'0 0.0
2017-Oct-10 04:30N 37°55' W 008°52'0 0.0
2017-Oct-10 04:00N 37°55' W 008°52'0 0.0
2017-Oct-10 03:24N 37°55' W 008°52'0 0.0
2017-Oct-10 02:57N 37°55' W 008°52'0 0.0
2017-Oct-10 02:30N 37°55' W 008°52'0 0.0
2017-Oct-10 02:00N 37°55' W 008°52'0 0.0
2017-Oct-10 01:30N 37°55' W 008°52'0 0.0
2017-Oct-10 01:00N 37°55' W 008°52'0 0.0
2017-Oct-10 00:30N 37°55' W 008°52'0 0.0
2017-Oct-09 23:57N 37°55' W 008°52'0 0.1
2017-Oct-09 23:30N 37°55' W 008°52'0 0.0
2017-Oct-09 23:00N 37°55' W 008°52'0 0.0
2017-Oct-09 22:24N 37°55' W 008°52'0 0.0
2017-Oct-09 22:00N 37°55' W 008°52'0 0.0
2017-Oct-09 21:30N 37°55' W 008°52'0 0.0
2017-Oct-09 21:00N 37°55' W 008°52'0 0.0
2017-Oct-09 20:30N 37°55' W 008°52'0 0.0
2017-Oct-09 20:00N 37°55' W 008°52'0 0.0
2017-Oct-09 19:30N 37°55' W 008°52'0 0.0
2017-Oct-09 19:00N 37°55' W 008°52'0 0.0
2017-Oct-09 18:30N 37°55' W 008°52'0 0.1
2017-Oct-09 18:00N 37°55' W 008°52'0 0.0
2017-Oct-09 17:30N 37°54' W 008°52'0 0.0
2017-Oct-09 17:00N 37°54' W 008°52'0 0.0
2017-Oct-09 16:30N 37°54' W 008°52'0 0.0
2017-Oct-09 15:57N 37°54' W 008°52'0 0.0
2017-Oct-09 15:30N 37°54' W 008°52'0 0.0
2017-Oct-09 15:00N 37°54' W 008°52'0 0.0
2017-Oct-09 14:27N 37°54' W 008°52'0 0.0
2017-Oct-09 14:00N 37°54' W 008°52'0 0.0
2017-Oct-09 13:30N 37°54' W 008°52'0 0.0
2017-Oct-09 12:57N 37°55' W 008°52'0 0.0
2017-Oct-09 12:30N 37°55' W 008°52'0 0.0
2017-Oct-09 12:00N 37°55' W 008°52'0 0.0
2017-Oct-09 11:30N 37°55' W 008°52'0 0.0
2017-Oct-09 10:48N 37°55' W 008°52'0 0.0
2017-Oct-09 10:30N 37°55' W 008°52'0 0.0
2017-Oct-09 09:54N 37°55' W 008°52'0 0.0
2017-Oct-09 09:30N 37°55' W 008°52'0 0.0
2017-Oct-09 09:00N 37°55' W 008°52'0 0.0
2017-Oct-09 08:30N 37°55' W 008°52'0 0.0
2017-Oct-09 08:00N 37°55' W 008°52'0 0.0
2017-Oct-09 07:30N 37°55' W 008°52'0 0.0
2017-Oct-09 06:56N 37°55' W 008°52'0 0.0
2017-Oct-09 06:29N 37°55' W 008°52'0 0.0
2017-Oct-09 05:59N 37°55' W 008°52'0 0.0
2017-Oct-09 05:29N 37°55' W 008°52'0 0.0
2017-Oct-09 04:53N 37°55' W 008°52'0 0.0
2017-Oct-09 04:29N 37°55' W 008°52'0 0.0
2017-Oct-09 03:59N 37°55' W 008°52'0 0.0
2017-Oct-09 03:29N 37°55' W 008°52'0 0.6
2017-Oct-09 03:00N 37°55' W 008°52'2 5.0
2017-Oct-09 02:30N 37°57' W 008°53'0 0.0
2017-Oct-09 02:00N 37°57' W 008°53'0 0.0
2017-Oct-09 01:30N 37°57' W 008°53'0 0.0
2017-Oct-08 16:51N 37°57' W 008°53'1 1.7
2017-Oct-08 16:30N 37°56' W 008°53'2 4.1
2017-Oct-08 15:58N 37°54' W 008°52'0 0.0
2017-Oct-08 15:28N 37°54' W 008°52'0 0.0
2017-Oct-08 14:58N 37°54' W 008°52'0 0.0
2017-Oct-08 14:28N 37°54' W 008°52'0 0.0
2017-Oct-08 13:58N 37°54' W 008°52'0 0.0
2017-Oct-08 13:28N 37°54' W 008°52'0 0.0
2017-Oct-08 12:58N 37°54' W 008°52'0 0.0
2017-Oct-08 12:28N 37°54' W 008°52'0 0.0
2017-Oct-08 11:58N 37°54' W 008°52'0 0.0
2017-Oct-08 11:28N 37°54' W 008°52'0 0.0
2017-Oct-08 10:58N 37°54' W 008°52'0 0.0
2017-Oct-08 10:28N 37°54' W 008°52'0 0.1
2017-Oct-08 09:58N 37°54' W 008°52'0 0.0
2017-Oct-08 09:28N 37°54' W 008°52'0 0.0
2017-Oct-08 08:58N 37°54' W 008°52'0 0.0
2017-Oct-08 08:28N 37°54' W 008°52'0 0.0
2017-Oct-08 07:58N 37°55' W 008°52'0 0.0
2017-Oct-08 07:28N 37°55' W 008°52'0 0.0
2017-Oct-08 06:58N 37°55' W 008°52'0 0.0
2017-Oct-08 06:28N 37°55' W 008°52'0 0.0
2017-Oct-08 05:58N 37°55' W 008°52'0 0.0
2017-Oct-08 05:28N 37°55' W 008°52'0 0.0
2017-Oct-08 04:58N 37°55' W 008°52'0 0.0
2017-Oct-08 04:25N 37°55' W 008°52'0 0.0
2017-Oct-08 03:58N 37°55' W 008°52'0 0.0
2017-Oct-08 03:28N 37°55' W 008°52'0 0.0
2017-Oct-08 02:55N 37°55' W 008°52'0 0.0
2017-Oct-08 02:28N 37°55' W 008°52'0 0.0
2017-Oct-08 01:58N 37°55' W 008°52'0 0.1
2017-Oct-08 01:28N 37°55' W 008°52'0 0.1
2017-Oct-08 00:58N 37°55' W 008°52'0 0.0
2017-Oct-08 00:28N 37°55' W 008°52'0 0.0
2017-Oct-08 00:01N 37°55' W 008°52'0 0.0
2017-Oct-07 23:31N 37°55' W 008°52'0 0.1
2017-Oct-07 23:00N 37°55' W 008°52'0 0.0
2017-Oct-07 22:30N 37°55' W 008°52'0 0.0
2017-Oct-07 22:00N 37°55' W 008°52'0 0.0
2017-Oct-07 21:30N 37°55' W 008°52'0 0.0
2017-Oct-07 21:00N 37°55' W 008°52'0 0.0
2017-Oct-07 20:30N 37°55' W 008°52'0 0.0
2017-Oct-07 20:00N 37°55' W 008°52'0 0.0
2017-Oct-07 19:30N 37°55' W 008°52'  
Track history (hours):
 
Tides and Currents Weather Stations Pressure Air Temp Water Temp Dewpoint Dewpoint Depression Visibility Wind Speed Wind Dir Waves Ship Positions

Gas Alice

Last reported at 2017-Oct-17 19:13 UTC. Time now 2017-Oct-18 06:11 UTC.
Position N 39°05' W 009°56'.

Length 96 m; draft 5.5 m.

Type: Tanker. MMSI: 209137000.

Date/timePositionNaut miles runAvg speedWind from/ knotsBaromVisibWave heightAir tempDewpointWater temp
2017-Oct-17 19:13N 39°05' W 009°56'211.5
2017-Oct-17 19:00N 39°03' W 009°56'611.8
2017-Oct-17 18:30N 38°57' W 009°56'2211.9
2017-Oct-17 16:40N 38°35' W 009°53'212.1
2017-Oct-17 16:30N 38°33' W 009°52'4211.2
2017-Oct-17 12:43N 38°02' W 009°16'312.2
2017-Oct-17 12:30N 38°01' W 009°13'611.9
2017-Oct-17 12:00N 37°58' W 009°06'611.9
2017-Oct-17 11:30N 37°55' W 008°59'5 9.9
2017-Oct-17 11:00N 37°55' W 008°53'2 3.4
2017-Oct-17 10:30N 37°57' W 008°53'0 0.0
2017-Oct-17 10:00N 37°57' W 008°53'0 0.0
2017-Oct-17 09:30N 37°57' W 008°53'0 0.0
2017-Oct-17 09:00N 37°57' W 008°53'0 0.0
2017-Oct-17 08:30N 37°57' W 008°53'0 0.0
2017-Oct-17 08:00N 37°57' W 008°53'0 0.0
2017-Oct-16 00:51N 37°57' W 008°53'1 1.9
2017-Oct-16 00:30N 37°56' W 008°53'2 4.8
2017-Oct-16 00:00N 37°55' W 008°56'5 9.8
2017-Oct-15 23:30N 37°56' W 009°02'612.2
2017-Oct-15 23:00N 37°59' W 009°08'612.1
2017-Oct-15 22:30N 38°02' W 009°15'612.3
2017-Oct-15 22:00N 38°05' W 009°22'612.2
2017-Oct-15 21:30N 38°08' W 009°29'712.3
2017-Oct-15 20:56N 38°11' W 009°37'512.0
2017-Oct-15 20:29N 38°14' W 009°42'711.7
2017-Oct-15 19:55N 38°19' W 009°49'512.0
2017-Oct-15 19:30N 38°22' W 009°53'612.3
2017-Oct-15 19:00N 38°26' W 009°59'611.8
2017-Oct-15 18:30N 38°29' W 010°05'611.2
2017-Oct-15 18:00N 38°34' W 010°09'611.8
2017-Oct-15 17:30N 38°40' W 010°11'611.3
2017-Oct-15 16:58N 38°46' W 010°11'510.6
2017-Oct-15 16:30N 38°51' W 010°11'510.9
2017-Oct-15 16:00N 38°56' W 010°12'611.7
2017-Oct-15 15:30N 39°02' W 010°12'611.7
2017-Oct-15 15:00N 39°08' W 010°12'1111.3
2017-Oct-15 14:00N 39°19' W 010°12'12910.3
2017-Oct-15 01:24N 41°09' W 008°43'2 4.9
2017-Oct-15 01:00N 41°11' W 008°43'0 0.0
2017-Oct-15 00:31N 41°11' W 008°43'0 0.0
2017-Oct-13 07:54N 41°11' W 008°43'1 3.5
2017-Oct-13 07:30N 41°10' W 008°42'139 9.3
2017-Oct-12 16:32N 39°02' W 009°56'112.6
2017-Oct-12 16:29N 39°02' W 009°56'6911.3
2017-Oct-12 10:26N 38°01' W 009°14'512.4
2017-Oct-12 10:00N 37°59' W 009°08'612.8
2017-Oct-12 09:30N 37°56' W 009°01'611.5
2017-Oct-12 09:00N 37°55' W 008°54'3 5.1
2017-Oct-12 08:30N 37°57' W 008°53'0 0.0
2017-Oct-12 08:00N 37°57' W 008°53'0 0.0
2017-Oct-12 07:30N 37°57' W 008°53'0 0.0
2017-Oct-12 07:00N 37°57' W 008°53'0 0.0
2017-Oct-12 06:30N 37°57' W 008°53'0 0.0
2017-Oct-12 05:59N 37°57' W 008°53'3 0.1
2017-Oct-10 23:58N 37°55' W 008°52'0 0.0
2017-Oct-10 23:28N 37°55' W 008°52'0 0.0
2017-Oct-10 22:55N 37°55' W 008°52'0 0.0
2017-Oct-10 22:28N 37°55' W 008°52'0 0.0
2017-Oct-10 21:58N 37°55' W 008°52'0 0.0
2017-Oct-10 21:28N 37°55' W 008°52'0 0.0
2017-Oct-10 20:55N 37°55' W 008°52'0 0.0
2017-Oct-10 20:25N 37°55' W 008°52'0 0.0
2017-Oct-10 19:55N 37°55' W 008°52'0 0.0
2017-Oct-10 19:25N 37°55' W 008°52'0 0.0
2017-Oct-10 19:01N 37°55' W 008°52'0 0.1
2017-Oct-10 18:31N 37°54' W 008°52'0 0.1
2017-Oct-10 17:58N 37°54' W 008°52'0 0.0
2017-Oct-10 17:30N 37°54' W 008°52'0 0.0
2017-Oct-10 17:00N 37°54' W 008°52'0 0.0
2017-Oct-10 16:24N 37°55' W 008°52'0 0.0
2017-Oct-10 15:57N 37°54' W 008°52'0 0.1
2017-Oct-10 15:30N 37°55' W 008°52'0 0.0
2017-Oct-10 15:00N 37°55' W 008°52'0 0.0
2017-Oct-10 14:00N 37°54' W 008°52'0 0.0
2017-Oct-10 13:30N 37°54' W 008°52'0 0.0
2017-Oct-10 13:00N 37°54' W 008°52'0 0.0
2017-Oct-10 12:30N 37°54' W 008°52'0 0.0
2017-Oct-10 12:00N 37°54' W 008°52'0 0.0
2017-Oct-10 11:30N 37°54' W 008°52'0 0.0
2017-Oct-10 11:00N 37°54' W 008°52'0 0.0
2017-Oct-10 10:30N 37°54' W 008°52'0 0.0
2017-Oct-10 10:00N 37°54' W 008°52'0 0.1
2017-Oct-10 09:27N 37°55' W 008°52'0 0.1
2017-Oct-10 08:57N 37°55' W 008°52'0 0.0
2017-Oct-10 08:30N 37°55' W 008°52'0 0.0
2017-Oct-10 08:00N 37°55' W 008°52'0 0.0
2017-Oct-10 07:30N 37°55' W 008°52'0 0.0
2017-Oct-10 07:00N 37°55' W 008°52'0 0.0
2017-Oct-10 06:27N 37°55' W 008°52'0 0.0
2017-Oct-10 05:57N 37°55' W 008°52'0 0.0
2017-Oct-10 05:30N 37°55' W 008°52'0 0.0
2017-Oct-10 05:00N 37°55' W 008°52'0 0.0
2017-Oct-10 04:30N 37°55' W 008°52'0 0.0
2017-Oct-10 04:00N 37°55' W 008°52'0 0.0
2017-Oct-10 03:24N 37°55' W 008°52'0 0.0
2017-Oct-10 02:57N 37°55' W 008°52'0 0.0
2017-Oct-10 02:30N 37°55' W 008°52'0 0.0
2017-Oct-10 02:00N 37°55' W 008°52'0 0.0
2017-Oct-10 01:30N 37°55' W 008°52'0 0.0
2017-Oct-10 01:00N 37°55' W 008°52'0 0.0
2017-Oct-10 00:30N 37°55' W 008°52'0 0.0
2017-Oct-09 23:57N 37°55' W 008°52'0 0.1
2017-Oct-09 23:30N 37°55' W 008°52'0 0.0
2017-Oct-09 23:00N 37°55' W 008°52'0 0.0
2017-Oct-09 22:24N 37°55' W 008°52'0 0.0
2017-Oct-09 22:00N 37°55' W 008°52'0 0.0
2017-Oct-09 21:30N 37°55' W 008°52'0 0.0
2017-Oct-09 21:00N 37°55' W 008°52'0 0.0
2017-Oct-09 20:30N 37°55' W 008°52'0 0.0
2017-Oct-09 20:00N 37°55' W 008°52'0 0.0
2017-Oct-09 19:30N 37°55' W 008°52'0 0.0
2017-Oct-09 19:00N 37°55' W 008°52'0 0.0
2017-Oct-09 18:30N 37°55' W 008°52'0 0.1
2017-Oct-09 18:00N 37°55' W 008°52'0 0.0
2017-Oct-09 17:30N 37°54' W 008°52'0 0.0
2017-Oct-09 17:00N 37°54' W 008°52'0 0.0
2017-Oct-09 16:30N 37°54' W 008°52'0 0.0
2017-Oct-09 15:57N 37°54' W 008°52'0 0.0
2017-Oct-09 15:30N 37°54' W 008°52'0 0.0
2017-Oct-09 15:00N 37°54' W 008°52'0 0.0
2017-Oct-09 14:27N 37°54' W 008°52'0 0.0
2017-Oct-09 14:00N 37°54' W 008°52'0 0.0
2017-Oct-09 13:30N 37°54' W 008°52'0 0.0
2017-Oct-09 12:57N 37°55' W 008°52'0 0.0
2017-Oct-09 12:30N 37°55' W 008°52'0 0.0
2017-Oct-09 12:00N 37°55' W 008°52'0 0.0
2017-Oct-09 11:30N 37°55' W 008°52'0 0.0
2017-Oct-09 10:48N 37°55' W 008°52'0 0.0
2017-Oct-09 10:30N 37°55' W 008°52'0 0.0
2017-Oct-09 09:54N 37°55' W 008°52'0 0.0
2017-Oct-09 09:30N 37°55' W 008°52'0 0.0
2017-Oct-09 09:00N 37°55' W 008°52'0 0.0
2017-Oct-09 08:30N 37°55' W 008°52'0 0.0
2017-Oct-09 08:00N 37°55' W 008°52'0 0.0
2017-Oct-09 07:30N 37°55' W 008°52'0 0.0
2017-Oct-09 06:56N 37°55' W 008°52'0 0.0
2017-Oct-09 06:29N 37°55' W 008°52'0 0.0
2017-Oct-09 05:59N 37°55' W 008°52'0 0.0
2017-Oct-09 05:29N 37°55' W 008°52'0 0.0
2017-Oct-09 04:53N 37°55' W 008°52'0 0.0
2017-Oct-09 04:29N 37°55' W 008°52'0 0.0
2017-Oct-09 03:59N 37°55' W 008°52'0 0.0
2017-Oct-09 03:29N 37°55' W 008°52'0 0.6
2017-Oct-09 03:00N 37°55' W 008°52'2 5.0
2017-Oct-09 02:30N 37°57' W 008°53'0 0.0
2017-Oct-09 02:00N 37°57' W 008°53'0 0.0
2017-Oct-09 01:30N 37°57' W 008°53'0 0.0
2017-Oct-08 16:51N 37°57' W 008°53'1 1.7
2017-Oct-08 16:30N 37°56' W 008°53'2 4.1
2017-Oct-08 15:58N 37°54' W 008°52'0 0.0
2017-Oct-08 15:28N 37°54' W 008°52'0 0.0
2017-Oct-08 14:58N 37°54' W 008°52'0 0.0
2017-Oct-08 14:28N 37°54' W 008°52'0 0.0
2017-Oct-08 13:58N 37°54' W 008°52'0 0.0
2017-Oct-08 13:28N 37°54' W 008°52'0 0.0
2017-Oct-08 12:58N 37°54' W 008°52'0 0.0
2017-Oct-08 12:28N 37°54' W 008°52'0 0.0
2017-Oct-08 11:58N 37°54' W 008°52'0 0.0
2017-Oct-08 11:28N 37°54' W 008°52'0 0.0
2017-Oct-08 10:58N 37°54' W 008°52'0 0.0
2017-Oct-08 10:28N 37°54' W 008°52'0 0.1
2017-Oct-08 09:58N 37°54' W 008°52'0 0.0
2017-Oct-08 09:28N 37°54' W 008°52'0 0.0
2017-Oct-08 08:58N 37°54' W 008°52'0 0.0
2017-Oct-08 08:28N 37°54' W 008°52'0 0.0
2017-Oct-08 07:58N 37°55' W 008°52'0 0.0
2017-Oct-08 07:28N 37°55' W 008°52'0 0.0
2017-Oct-08 06:58N 37°55' W 008°52'0 0.0
2017-Oct-08 06:28N 37°55' W 008°52'0 0.0
2017-Oct-08 05:58N 37°55' W 008°52'0 0.0
2017-Oct-08 05:28N 37°55' W 008°52'0 0.0
2017-Oct-08 04:58N 37°55' W 008°52'0 0.0
2017-Oct-08 04:25N 37°55' W 008°52'0 0.0
2017-Oct-08 03:58N 37°55' W 008°52'0 0.0
2017-Oct-08 03:28N 37°55' W 008°52'0 0.0
2017-Oct-08 02:55N 37°55' W 008°52'0 0.0
2017-Oct-08 02:28N 37°55' W 008°52'0 0.0
2017-Oct-08 01:58N 37°55' W 008°52'0 0.1
2017-Oct-08 01:28N 37°55' W 008°52'0 0.1
2017-Oct-08 00:58N 37°55' W 008°52'0 0.0
2017-Oct-08 00:28N 37°55' W 008°52'0 0.0
2017-Oct-08 00:01N 37°55' W 008°52'0 0.0
2017-Oct-07 23:31N 37°55' W 008°52'0 0.1
2017-Oct-07 23:00N 37°55' W 008°52'0 0.0
2017-Oct-07 22:30N 37°55' W 008°52'0 0.0
2017-Oct-07 22:00N 37°55' W 008°52'0 0.0
2017-Oct-07 21:30N 37°55' W 008°52'0 0.0
2017-Oct-07 21:00N 37°55' W 008°52'0 0.0
2017-Oct-07 20:30N 37°55' W 008°52'0 0.0
2017-Oct-07 20:00N 37°55' W 008°52'0 0.0
2017-Oct-07 19:30N 37°55' W 008°52'  

Dump ship's entire track history